createdAt,value
2018-05-23T00:01:04.218Z,92610.77
2018-05-23T00:03:30.550Z,92619.80
2018-05-23T00:05:56.958Z,92602.18
2018-05-23T00:08:23.303Z,92604.30
2018-05-23T00:10:49.645Z,92615.69
2018-05-23T00:13:16.105Z,92613.22
2018-05-23T00:15:42.439Z,92600.95
2018-05-23T00:18:08.760Z,92601.31
2018-05-23T00:20:35.119Z,92602.42
2018-05-23T00:23:01.465Z,92603.67
2018-05-23T00:25:27.812Z,92603.58
2018-05-23T00:27:54.209Z,92611.52
2018-05-23T00:30:20.531Z,92601.48
2018-05-23T00:32:46.856Z,92607.53
2018-05-23T00:35:13.386Z,92613.23
2018-05-23T00:37:39.721Z,92607.13
2018-05-23T00:40:06.084Z,92602.73
2018-05-23T00:42:32.467Z,92598.20
2018-05-23T00:44:58.804Z,92595.45
2018-05-23T00:47:25.140Z,92593.18
2018-05-23T00:49:51.516Z,92592.63
2018-05-23T00:52:17.855Z,92592.05
2018-05-23T00:54:56.514Z,92590.92
2018-05-23T00:57:22.864Z,92597.56
2018-05-23T00:59:49.200Z,92599.16
2018-05-23T01:02:15.591Z,92598.04
2018-05-23T01:07:36.180Z,92598.59
2018-05-23T01:10:02.588Z,92593.95
2018-05-23T01:12:28.921Z,92596.65
2018-05-23T01:14:55.406Z,92600.19
2018-05-23T01:17:21.824Z,92590.66
2018-05-23T01:19:48.178Z,92586.84
2018-05-23T01:22:14.565Z,92589.08
2018-05-23T01:24:40.898Z,92582.33
2018-05-23T01:27:07.230Z,92590.30
2018-05-23T01:29:33.609Z,92589.52
2018-05-23T01:31:59.947Z,92588.41
2018-05-23T01:34:26.288Z,92583.71
2018-05-23T01:36:52.738Z,92582.44
2018-05-23T01:39:19.080Z,92582.66
2018-05-23T01:41:45.454Z,92591.98
2018-05-23T01:44:11.829Z,92590.52
2018-05-23T01:46:38.174Z,92595.28
2018-05-23T01:49:16.517Z,92593.05
2018-05-23T01:51:42.845Z,92588.99
2018-05-23T01:54:09.172Z,92594.04
2018-05-23T01:56:35.781Z,92596.94
2018-05-23T01:59:02.142Z,92597.73
2018-05-23T02:01:28.470Z,92593.55
2018-05-23T02:03:54.982Z,92596.80
2018-05-23T02:06:21.310Z,92600.92
2018-05-23T02:08:47.630Z,92599.06
2018-05-23T02:11:14.041Z,92591.02
2018-05-23T02:13:40.355Z,92596.83
2018-05-23T02:16:06.691Z,92600.54
2018-05-23T02:18:33.113Z,92595.92
2018-05-23T02:21:00.432Z,92598.19
2018-05-23T02:23:26.769Z,92600.06
2018-05-23T02:25:53.152Z,92602.40
2018-05-23T02:28:22.532Z,92611.70
2018-05-23T02:30:48.877Z,92605.31
2018-05-23T02:33:15.255Z,92608.45
2018-05-23T02:35:42.537Z,92613.55
2018-05-23T02:38:08.865Z,92615.80
2018-05-23T02:40:35.358Z,92621.58
2018-05-23T02:43:01.714Z,92624.20
2018-05-23T02:45:28.055Z,92625.97
2018-05-23T02:47:54.452Z,92623.67
2018-05-23T02:50:20.827Z,92622.59
2018-05-23T02:52:47.164Z,92620.86
2018-05-23T02:55:13.524Z,92625.17
2018-05-23T02:57:39.980Z,92627.34
2018-05-23T03:00:06.361Z,92624.31
2018-05-23T03:02:32.801Z,92626.88
2018-05-23T03:04:59.136Z,92623.86
2018-05-23T03:07:25.478Z,92618.75
2018-05-23T03:09:51.851Z,92625.01
2018-05-23T03:12:18.198Z,92626.04
2018-05-23T03:14:44.529Z,92623.70
2018-05-23T03:17:10.921Z,92620.83
2018-05-23T03:19:37.266Z,92626.08
2018-05-23T03:22:03.658Z,92627.12
2018-05-23T03:24:30.085Z,92632.34
2018-05-23T03:26:56.456Z,92629.15
2018-05-23T03:29:22.768Z,92626.30
2018-05-23T03:31:49.225Z,92625.17
2018-05-23T03:34:15.589Z,92618.30
2018-05-23T03:36:41.953Z,92619.06
2018-05-23T03:39:08.324Z,92618.42
2018-05-23T03:41:34.661Z,92614.83
2018-05-23T03:44:00.983Z,92621.58
2018-05-23T03:46:27.423Z,92621.70
2018-05-23T03:48:53.757Z,92621.25
2018-05-23T03:51:20.100Z,92621.33
2018-05-23T03:53:46.539Z,92621.48
2018-05-23T03:56:12.871Z,92620.42
2018-05-23T03:58:39.306Z,92624.63
2018-05-23T04:01:17.793Z,92621.04
2018-05-23T04:03:56.291Z,92618.69
2018-05-23T04:06:34.894Z,92625.15
2018-05-23T04:09:01.249Z,92629.55
2018-05-23T04:11:27.593Z,92628.09
2018-05-23T04:13:53.979Z,92631.77
2018-05-23T04:16:20.301Z,92621.41
2018-05-23T04:18:46.648Z,92624.22
2018-05-23T04:21:13.052Z,92633.17
2018-05-23T04:23:39.409Z,92628.81
2018-05-23T04:26:05.732Z,92636.61
2018-05-23T04:28:32.170Z,92634.00
2018-05-23T04:30:58.491Z,92631.06
2018-05-23T04:33:24.965Z,92635.30
2018-05-23T04:35:51.421Z,92638.33
2018-05-23T04:38:17.746Z,92633.01
2018-05-23T04:40:44.086Z,92635.05
2018-05-23T04:43:10.475Z,92629.41
2018-05-23T04:45:36.794Z,92634.45
2018-05-23T04:48:03.145Z,92634.81
2018-05-23T04:50:29.624Z,92632.47
2018-05-23T04:52:55.966Z,92641.58
2018-05-23T04:55:22.332Z,92639.09
2018-05-23T04:57:48.715Z,92632.11
2018-05-23T05:00:15.158Z,92634.91
2018-05-23T05:02:44.529Z,92634.47
2018-05-23T05:05:10.945Z,92634.39
2018-05-23T05:07:37.279Z,92638.88
2018-05-23T05:10:03.702Z,92637.83
2018-05-23T05:12:30.174Z,92636.14
2018-05-23T05:14:56.564Z,92633.33
2018-05-23T05:17:22.921Z,92638.87
2018-05-23T05:19:49.301Z,92641.31
2018-05-23T05:22:15.636Z,92637.30
2018-05-23T05:24:41.974Z,92641.92
2018-05-23T05:27:08.403Z,92635.67
2018-05-23T05:29:34.736Z,92639.00
2018-05-23T05:32:01.109Z,92640.37
2018-05-23T05:34:27.555Z,92643.02
2018-05-23T05:36:53.895Z,92644.34
2018-05-23T05:39:20.363Z,92648.08
2018-05-23T05:41:46.802Z,92644.61
2018-05-23T05:44:13.139Z,92649.95
2018-05-23T05:46:39.481Z,92646.06
2018-05-23T05:49:05.875Z,92648.75
2018-05-23T05:51:32.213Z,92649.12
2018-05-23T05:53:58.560Z,92647.66
2018-05-23T05:56:25.360Z,92650.72
2018-05-23T05:58:51.700Z,92649.69
2018-05-23T06:01:18.194Z,92645.56
2018-05-23T06:03:44.624Z,92650.05
2018-05-23T06:06:10.968Z,92651.13
2018-05-23T06:08:37.319Z,92650.80
2018-05-23T06:11:03.781Z,92650.26
2018-05-23T06:13:30.137Z,92645.08
2018-05-23T06:15:56.483Z,92643.38
2018-05-23T06:18:22.911Z,92646.63
2018-05-23T06:20:49.254Z,92637.53
2018-05-23T06:23:15.611Z,92637.02
2018-05-23T06:25:42.034Z,92633.73
2018-05-23T06:28:08.381Z,92631.73
2018-05-23T06:30:34.754Z,92631.73
2018-05-23T06:33:01.139Z,92629.33
2018-05-23T06:35:27.490Z,92631.06
2018-05-23T06:37:53.873Z,92625.69
2018-05-23T06:40:21.276Z,92633.29
2018-05-23T06:42:47.636Z,92627.83
2018-05-23T06:45:14.088Z,92626.06
2018-05-23T06:47:43.485Z,92626.89
2018-05-23T06:50:09.912Z,92630.34
2018-05-23T06:52:36.247Z,92623.37
2018-05-23T06:55:05.640Z,92620.86
2018-05-23T06:57:31.992Z,92612.34
2018-05-23T06:59:58.355Z,92612.74
2018-05-23T07:02:24.886Z,92605.86
2018-05-23T07:04:51.236Z,92606.34
2018-05-23T07:07:17.570Z,92604.44
2018-05-23T07:09:43.957Z,92601.23
2018-05-23T07:12:10.326Z,92604.70
2018-05-23T07:14:36.714Z,92603.01
2018-05-23T07:17:03.147Z,92601.14
2018-05-23T07:19:34.869Z,92607.71
2018-05-23T07:22:01.230Z,92608.89
2018-05-23T07:24:28.072Z,92599.53
2018-05-23T07:26:54.440Z,92604.02
2018-05-23T07:29:20.797Z,92605.02
2018-05-23T07:31:48.050Z,92601.23
2018-05-23T07:34:14.390Z,92595.58
2018-05-23T07:36:40.726Z,92596.15
2018-05-23T07:39:07.104Z,92594.58
2018-05-23T07:41:34.452Z,92581.73
2018-05-23T07:44:00.931Z,92581.02
2018-05-23T07:46:27.400Z,92579.08
2018-05-23T07:48:53.734Z,92578.45
2018-05-23T07:51:20.061Z,92581.23
2018-05-23T07:53:46.441Z,92571.13
2018-05-23T07:56:12.798Z,92564.97
2018-05-23T07:58:39.125Z,92569.74
2018-05-23T08:01:05.526Z,92568.63
2018-05-23T08:03:35.385Z,92569.33
2018-05-23T08:06:01.729Z,92563.48
2018-05-23T08:08:28.190Z,92554.39
2018-05-23T08:10:54.516Z,92559.28
2018-05-23T08:13:20.838Z,92558.73
2018-05-23T08:15:47.281Z,92545.98
2018-05-23T08:18:13.624Z,92551.61
2018-05-23T08:20:39.957Z,92546.34
2018-05-23T08:23:06.342Z,92538.86
2018-05-23T08:25:32.713Z,92541.94
2018-05-23T08:27:59.045Z,92536.95
2018-05-23T08:30:25.522Z,92532.05
2018-05-23T08:32:51.853Z,92532.88
2018-05-23T08:35:18.215Z,92531.19
2018-05-23T08:37:44.848Z,92523.98
2018-05-23T08:40:11.187Z,92518.81
2018-05-23T08:42:37.546Z,92517.77
2018-05-23T08:45:03.985Z,92514.81
2018-05-23T08:47:30.331Z,92511.22
2018-05-23T08:49:56.691Z,92510.40
2018-05-23T08:52:23.130Z,92519.88
2018-05-23T08:54:49.478Z,92512.17
2018-05-23T08:57:15.836Z,92511.52
2018-05-23T08:59:42.221Z,92497.59
2018-05-23T09:02:08.565Z,92502.34
2018-05-23T09:04:35.307Z,92507.42
2018-05-23T09:07:01.756Z,92500.66
2018-05-23T09:09:28.106Z,92502.63
2018-05-23T09:11:54.447Z,92497.69
2018-05-23T09:14:20.980Z,92497.75
2018-05-23T09:16:48.311Z,92493.70
2018-05-23T09:19:14.640Z,92496.02
2018-05-23T09:21:41.030Z,92482.11
2018-05-23T09:24:07.371Z,92480.30
2018-05-23T09:26:33.691Z,92477.78
2018-05-23T09:29:00.081Z,92472.66
2018-05-23T09:31:26.508Z,92471.72
2018-05-23T09:33:52.854Z,92467.62
2018-05-23T09:36:19.295Z,92470.49
2018-05-23T09:38:45.666Z,92463.07
2018-05-23T09:41:12.059Z,92465.25
2018-05-23T09:43:38.449Z,92466.42
2018-05-23T09:46:04.795Z,92468.71
2018-05-23T09:48:31.129Z,92459.19
2018-05-23T09:50:58.445Z,92459.98
2018-05-23T09:53:24.926Z,92447.13
2018-05-23T09:55:51.268Z,92450.78
2018-05-23T09:58:17.721Z,92452.88
2018-05-23T10:00:44.060Z,92449.92
2018-05-23T10:03:10.410Z,92453.27
2018-05-23T10:05:36.921Z,92443.70
2018-05-23T10:08:03.276Z,92439.79
2018-05-23T10:10:29.691Z,92436.83
2018-05-23T10:12:56.010Z,92437.75
2018-05-23T10:15:22.339Z,92433.06
2018-05-23T10:17:48.679Z,92436.34
2018-05-23T10:20:15.125Z,92424.04
2018-05-23T10:22:41.460Z,92427.66
2018-05-23T10:25:07.871Z,92413.08
2018-05-23T10:27:34.268Z,92408.58
2018-05-23T10:30:00.631Z,92407.29
2018-05-23T10:32:26.971Z,92399.70
2018-05-23T10:34:53.357Z,92394.28
2018-05-23T10:37:19.695Z,92389.55
2018-05-23T10:39:46.051Z,92380.02
2018-05-23T10:42:12.513Z,92370.38
2018-05-23T10:44:38.843Z,92366.05
2018-05-23T10:47:06.016Z,92358.70
2018-05-23T10:49:32.388Z,92355.23
2018-05-23T10:51:58.781Z,92348.27
2018-05-23T10:54:25.097Z,92349.08
2018-05-23T10:56:51.477Z,92343.01
2018-05-23T10:59:17.813Z,92337.37
2018-05-23T11:01:44.154Z,92338.61
2018-05-23T11:04:10.618Z,92332.63
2018-05-23T11:06:37.047Z,92330.41
2018-05-23T11:09:04.251Z,92326.23
2018-05-23T11:11:30.573Z,92321.62
2018-05-23T11:13:56.973Z,92324.03
2018-05-23T11:16:23.346Z,92322.84
2018-05-23T11:18:49.734Z,92321.30
2018-05-23T11:21:16.076Z,92318.71
2018-05-23T11:23:42.418Z,92315.06
2018-05-23T11:26:08.886Z,92322.45
2018-05-23T11:28:35.231Z,92314.11
2018-05-23T11:31:01.627Z,92313.56
2018-05-23T11:33:28.117Z,92313.27
2018-05-23T11:35:54.488Z,92313.93
2018-05-23T11:38:20.827Z,92326.33
2018-05-23T11:40:47.225Z,92330.84
2018-05-23T11:43:13.582Z,92326.41
2018-05-23T11:45:39.931Z,92323.70
2018-05-23T11:48:06.406Z,92323.70
2018-05-23T11:50:32.767Z,92326.48
2018-05-23T11:52:59.105Z,92327.50
2018-05-23T11:55:25.578Z,92325.20
2018-05-23T11:57:51.887Z,92328.88
2018-05-23T12:00:18.223Z,92327.23
2018-05-23T12:02:44.946Z,92327.41
2018-05-23T12:05:11.322Z,92324.69
2018-05-23T12:07:38.326Z,92322.34
2018-05-23T12:10:04.761Z,92319.36
2018-05-23T12:12:31.086Z,92299.87
2018-05-23T12:14:57.431Z,92296.04
2018-05-23T12:17:23.695Z,92290.23
2018-05-23T12:19:50.050Z,92287.21
2018-05-23T12:22:16.397Z,92285.26
2018-05-23T12:24:42.799Z,92279.19
2018-05-23T12:27:09.133Z,92271.67
2018-05-23T12:29:35.462Z,92281.61
2018-05-23T12:32:01.895Z,92301.52
2018-05-23T12:34:28.249Z,92310.75
2018-05-23T12:36:54.577Z,92314.64
2018-05-23T12:39:21.103Z,92316.53
2018-05-23T12:41:47.444Z,92307.86
2018-05-23T12:44:13.788Z,92306.29
2018-05-23T12:46:40.189Z,92316.76
2018-05-23T12:49:06.764Z,92322.66
2018-05-23T12:51:33.091Z,92324.74
2018-05-23T12:53:59.600Z,92316.15
2018-05-23T12:56:25.943Z,92312.13
2018-05-23T12:58:52.277Z,92306.27
2018-05-23T13:01:18.642Z,92304.38
2018-05-23T13:03:45.087Z,92307.52
2018-05-23T13:06:11.443Z,92308.41
2018-05-23T13:08:37.916Z,92319.06
2018-05-23T13:11:04.250Z,92310.63
2018-05-23T13:13:30.606Z,92306.07
2018-05-23T13:15:57.039Z,92306.63
2018-05-23T13:18:23.380Z,92303.59
2018-05-23T13:20:49.723Z,92303.09
2018-05-23T13:23:16.104Z,92312.55
2018-05-23T13:25:42.461Z,92320.02
2018-05-23T13:28:08.803Z,92324.11
2018-05-23T13:30:35.201Z,92323.42
2018-05-23T13:33:01.544Z,92316.41
2018-05-23T13:35:27.884Z,92315.33
2018-05-23T13:37:54.326Z,92309.36
2018-05-23T13:40:20.687Z,92311.43
2018-05-23T13:42:47.045Z,92302.20
2018-05-23T13:45:13.420Z,92300.12
2018-05-23T13:47:39.751Z,92305.52
2018-05-23T13:50:06.083Z,92314.23
2018-05-23T13:52:32.451Z,92317.22
2018-05-23T13:54:58.798Z,92318.33
2018-05-23T13:57:25.152Z,92321.50
2018-05-23T13:59:51.687Z,92325.86
2018-05-23T14:02:18.041Z,92333.16
2018-05-23T14:04:44.386Z,92335.77
2018-05-23T14:07:10.769Z,92340.86
2018-05-23T14:09:37.238Z,92332.20
2018-05-23T14:12:03.600Z,92336.55
2018-05-23T14:14:29.999Z,92340.89
2018-05-23T14:16:56.335Z,92349.75
2018-05-23T14:19:22.716Z,92349.51
2018-05-23T14:21:49.149Z,92349.09
2018-05-23T14:24:15.492Z,92344.27
2018-05-23T14:26:41.918Z,92349.78
2018-05-23T14:29:08.294Z,92354.29
2018-05-23T14:31:34.625Z,92361.52
2018-05-23T14:34:00.957Z,92376.52
2018-05-23T14:36:27.345Z,92380.05
2018-05-23T14:38:53.676Z,92385.97
2018-05-23T14:41:20.033Z,92385.33
2018-05-23T14:43:46.574Z,92414.98
2018-05-23T14:46:13.092Z,92429.89
2018-05-23T14:48:39.416Z,92425.59
2018-05-23T14:51:05.833Z,92426.74
2018-05-23T14:53:32.164Z,92429.06
2018-05-23T14:56:04.453Z,92434.61
2018-05-23T14:58:36.927Z,92431.34
2018-05-23T15:01:09.500Z,92431.38
2018-05-23T15:03:36.816Z,92439.08
2018-05-23T15:06:03.461Z,92446.05
2018-05-23T15:08:29.834Z,92450.39
2018-05-23T15:10:56.289Z,92453.30
2018-05-23T15:13:22.668Z,92451.92
2018-05-23T15:15:49.024Z,92451.47
2018-05-23T15:18:15.374Z,92464.64
2018-05-23T15:20:41.771Z,92466.93
2018-05-23T15:23:14.162Z,92468.95
2018-05-23T15:25:46.710Z,92467.75
2018-05-23T15:28:19.068Z,92462.85
2018-05-23T15:30:51.527Z,92461.78
2018-05-23T15:33:23.868Z,92462.37
2018-05-23T15:35:56.357Z,92453.70
2018-05-23T15:38:29.182Z,92449.89
2018-05-23T15:41:01.618Z,92450.40
2018-05-23T15:43:34.116Z,92451.50
2018-05-23T15:46:06.489Z,92465.39
2018-05-23T15:48:39.211Z,92463.31
2018-05-23T15:51:12.106Z,92458.61
2018-05-23T15:53:44.486Z,92462.64
2018-05-23T15:56:17.029Z,92465.88
2018-05-23T15:58:49.572Z,92459.62
2018-05-23T16:01:22.015Z,92461.72
2018-05-23T16:03:54.287Z,92466.55
2018-05-23T16:06:26.683Z,92466.66
2018-05-23T16:08:59.073Z,92475.92
2018-05-23T16:11:31.748Z,92479.71
2018-05-23T16:14:04.341Z,92483.96
2018-05-23T16:16:37.377Z,92488.38
2018-05-23T16:19:09.908Z,92486.20
2018-05-23T16:21:42.463Z,92490.80
2018-05-23T16:24:14.887Z,92489.33
2018-05-23T16:26:47.616Z,92479.25
2018-05-23T16:29:20.160Z,92480.56
2018-05-23T16:31:53.043Z,92480.18
2018-05-23T16:34:25.363Z,92490.95
2018-05-23T16:36:57.879Z,92497.12
2018-05-23T16:39:30.614Z,92487.62
2018-05-23T16:42:03.189Z,92481.73
2018-05-23T16:44:35.685Z,92475.65
2018-05-23T16:47:08.020Z,92467.62
2018-05-23T16:49:40.568Z,92459.90
2018-05-23T16:52:13.159Z,92458.72
2018-05-23T16:54:45.657Z,92459.30
2018-05-23T16:57:18.178Z,92449.09
2018-05-23T16:59:50.665Z,92444.96
2018-05-23T17:02:22.996Z,92439.41
2018-05-23T17:04:55.526Z,92431.73
2018-05-23T17:07:28.011Z,92416.04
2018-05-23T17:10:00.292Z,92405.19
2018-05-23T17:12:33.011Z,92405.06
2018-05-23T17:15:05.421Z,92395.80
2018-05-23T17:17:38.029Z,92394.51
2018-05-23T17:20:10.297Z,92385.72
2018-05-23T17:22:42.801Z,92388.36
2018-05-23T17:25:15.194Z,92387.42
2018-05-23T17:27:47.826Z,92380.34
2018-05-23T17:30:20.276Z,92376.87
2018-05-23T17:32:52.773Z,92367.20
2018-05-23T17:35:25.201Z,92372.25
2018-05-23T17:37:57.556Z,92361.03
2018-05-23T17:40:29.872Z,92369.03
2018-05-23T17:43:02.507Z,92360.61
2018-05-23T17:45:34.987Z,92357.25
2018-05-23T17:48:07.759Z,92357.27
2018-05-23T17:50:40.064Z,92355.13
2018-05-23T17:53:12.575Z,92365.69
2018-05-23T17:55:44.983Z,92364.67
2018-05-23T17:58:17.636Z,92351.59
2018-05-23T18:00:55.253Z,92352.52
2018-05-23T18:03:27.615Z,92353.52
2018-05-23T18:06:00.182Z,92350.73
2018-05-23T18:08:32.728Z,92345.81
2018-05-23T18:11:05.016Z,92342.40
2018-05-23T18:13:37.686Z,92336.55
2018-05-23T18:16:10.066Z,92337.39
2018-05-23T18:18:42.540Z,92331.02
2018-05-23T18:21:15.090Z,92326.58
2018-05-23T18:23:47.685Z,92320.89
2018-05-23T18:26:20.023Z,92326.36
2018-05-23T18:28:52.548Z,92327.84
2018-05-23T18:31:25.025Z,92323.78
2018-05-23T18:33:57.541Z,92320.62
2018-05-23T18:36:29.881Z,92328.91
2018-05-23T18:39:02.403Z,92326.69
2018-05-23T18:41:34.930Z,92322.34
2018-05-23T18:44:07.468Z,92324.76
2018-05-23T18:46:39.960Z,92317.41
2018-05-23T18:49:12.429Z,92322.56
2018-05-23T18:51:44.872Z,92323.28
2018-05-23T18:54:17.249Z,92318.52
2018-05-23T18:56:49.658Z,92322.02
2018-05-23T18:59:22.215Z,92328.52
2018-05-23T19:01:54.770Z,92335.88
2018-05-23T19:04:27.259Z,92334.05
2018-05-23T19:06:59.803Z,92338.56
2018-05-23T19:09:32.132Z,92352.38
2018-05-23T19:12:04.621Z,92352.56
2018-05-23T19:14:37.257Z,92355.08
2018-05-23T19:17:09.655Z,92356.17
2018-05-23T19:19:42.193Z,92370.38
2018-05-23T19:22:14.636Z,92376.38
2018-05-23T19:24:47.232Z,92367.05
2018-05-23T19:27:19.607Z,92369.38
2018-05-23T19:29:52.042Z,92378.78
2018-05-23T19:32:24.557Z,92373.97
2018-05-23T19:34:57.054Z,92378.66
2018-05-23T19:37:29.508Z,92382.08
2018-05-23T19:40:02.026Z,92382.25
2018-05-23T19:42:34.524Z,92389.63
2018-05-23T19:45:07.075Z,92388.81
2018-05-23T19:47:39.500Z,92390.08
2018-05-23T19:50:12.516Z,92393.85
2018-05-23T19:52:45.238Z,92395.36
2018-05-23T19:55:17.538Z,92395.27
2018-05-23T19:57:49.988Z,92395.98
2018-05-23T20:00:22.452Z,92391.95
2018-05-23T20:02:54.937Z,92388.09
2018-05-23T20:05:27.299Z,92395.22
2018-05-23T20:07:59.921Z,92396.13
2018-05-23T20:10:33.129Z,92401.30
2018-05-23T20:13:05.610Z,92404.74
2018-05-23T20:15:39.976Z,92402.51
2018-05-23T20:18:12.470Z,92394.20
2018-05-23T20:20:44.943Z,92389.16
2018-05-23T20:23:17.439Z,92391.14
2018-05-23T20:25:50.006Z,92384.42
2018-05-23T20:28:22.316Z,92386.67
2018-05-23T20:30:56.551Z,92384.79
2018-05-23T20:33:29.044Z,92386.71
2018-05-23T20:36:01.388Z,92385.21
2018-05-23T20:38:33.822Z,92389.54
2018-05-23T20:41:06.426Z,92396.70
2018-05-23T20:43:38.697Z,92395.23
2018-05-23T20:46:11.283Z,92393.53
2018-05-23T20:48:43.725Z,92400.36
2018-05-23T20:51:16.097Z,92406.33
2018-05-23T20:53:48.577Z,92397.39
2018-05-23T20:56:20.945Z,92401.72
2018-05-23T20:58:53.515Z,92402.27
2018-05-23T21:01:26.390Z,92406.70
2018-05-23T21:03:58.771Z,92405.93
2018-05-23T21:06:31.197Z,92410.13
2018-05-23T21:09:05.459Z,92402.98
2018-05-23T21:11:37.946Z,92398.53
2018-05-23T21:14:10.450Z,92386.10
2018-05-23T21:16:43.180Z,92383.02
2018-05-23T21:19:15.559Z,92382.66
2018-05-23T21:21:47.987Z,92389.16
2018-05-23T21:24:20.422Z,92389.36
2018-05-23T21:26:52.812Z,92400.56
2018-05-23T21:29:25.274Z,92390.97
2018-05-23T21:31:57.868Z,92392.54
2018-05-23T21:34:30.376Z,92398.11
2018-05-23T21:37:02.780Z,92396.67
2018-05-23T21:39:35.270Z,92404.48
2018-05-23T21:42:07.810Z,92412.64
2018-05-23T21:44:40.128Z,92415.14
2018-05-23T21:47:12.492Z,92423.17
2018-05-23T21:49:44.951Z,92417.98
2018-05-23T21:52:17.454Z,92411.02
2018-05-23T21:54:49.773Z,92409.15
2018-05-23T21:57:22.102Z,92409.89
2018-05-23T21:59:54.376Z,92409.89
2018-05-23T22:02:26.976Z,92408.23
2018-05-23T22:04:59.368Z,92402.34
2018-05-23T22:07:31.773Z,92400.83
2018-05-23T22:10:04.185Z,92388.98
2018-05-23T22:12:36.569Z,92392.31
2018-05-23T22:17:47.370Z,92388.59
2018-05-23T22:20:19.810Z,92390.15
2018-05-23T22:22:52.111Z,92396.55
2018-05-23T22:25:24.483Z,92396.38
2018-05-23T22:27:57.021Z,92397.59
2018-05-23T22:30:29.328Z,92398.22
2018-05-23T22:33:01.760Z,92388.82
2018-05-23T22:35:34.350Z,92389.20
2018-05-23T22:38:06.993Z,92394.96
2018-05-23T22:40:39.412Z,92386.64
2018-05-23T22:43:11.719Z,92378.48
2018-05-23T22:45:44.197Z,92380.22
2018-05-23T22:48:16.757Z,92374.70
2018-05-23T22:50:49.244Z,92372.02
2018-05-23T22:53:21.577Z,92366.99
2018-05-23T22:55:54.102Z,92358.75
2018-05-23T22:58:26.708Z,92362.88
2018-05-23T23:00:59.193Z,92366.92
2018-05-23T23:03:31.754Z,92367.50
2018-05-23T23:06:04.132Z,92358.52
2018-05-23T23:08:36.465Z,92353.75
2018-05-23T23:11:08.828Z,92347.00
2018-05-23T23:13:41.344Z,92343.94
2018-05-23T23:16:13.871Z,92353.05
2018-05-23T23:18:47.597Z,92350.09
2018-05-23T23:21:19.936Z,92346.53
2018-05-23T23:23:52.922Z,92337.55
2018-05-23T23:26:25.379Z,92338.48
2018-05-23T23:28:57.706Z,92334.19
2018-05-23T23:31:30.190Z,92332.46
2018-05-23T23:34:02.760Z,92340.68
2018-05-23T23:36:35.156Z,92328.17
2018-05-23T23:39:07.495Z,92322.12
2018-05-23T23:41:39.940Z,92311.83
2018-05-23T23:44:12.411Z,92309.80
2018-05-23T23:46:44.825Z,92310.91
2018-05-23T23:49:17.225Z,92307.76
2018-05-23T23:51:49.690Z,92302.82
2018-05-23T23:54:22.409Z,92305.41
2018-05-23T23:56:56.154Z,92305.67
2018-05-23T23:59:28.832Z,92302.19
